createdAt,value
2022-11-13T00:01:25.763Z,23.73
2022-11-13T00:04:12.893Z,19.70
2022-11-13T00:07:00.416Z,26.40
2022-11-13T00:09:47.263Z,22.70
2022-11-13T00:12:34.230Z,26.73
2022-11-13T00:15:21.349Z,20.25
2022-11-13T00:18:09.850Z,21.35
2022-11-13T00:20:58.693Z,21.27
2022-11-13T00:23:46.121Z,18.27
2022-11-13T00:26:32.861Z,19.58
2022-11-13T00:29:21.132Z,18.90
2022-11-13T00:32:08.251Z,16.23
2022-11-13T00:34:55.320Z,18.42
2022-11-13T00:37:42.083Z,14.50
2022-11-13T00:40:29.422Z,17.95
2022-11-13T00:43:16.160Z,15.75
2022-11-13T00:46:03.717Z,15.27
2022-11-13T00:48:50.400Z,14.50
2022-11-13T00:51:37.760Z,17.25
2022-11-13T00:54:24.760Z,17.50
2022-11-13T00:57:13.570Z,19.23
2022-11-13T01:00:00.282Z,17.55
2022-11-13T01:02:47.363Z,15.63
2022-11-13T01:05:43.299Z,16.30
2022-11-13T01:08:31.083Z,17.52
2022-11-13T01:11:23.530Z,15.45
2022-11-13T01:14:10.741Z,14.75
2022-11-13T01:16:57.689Z,16.38
2022-11-13T01:19:46.150Z,14.15
2022-11-13T01:22:33.012Z,14.70
2022-11-13T01:25:20.519Z,12.35
2022-11-13T01:28:07.270Z,13.45
2022-11-13T01:30:54.750Z,13.90
2022-11-13T01:33:41.561Z,14.85
2022-11-13T01:36:29.600Z,10.80
2022-11-13T01:39:16.635Z,12.15
2022-11-13T01:42:04.532Z,11.90
2022-11-13T01:44:54.320Z,12.15
2022-11-13T01:47:41.530Z,10.85
2022-11-13T01:50:28.794Z,9.98
2022-11-13T01:53:17.029Z,9.65
2022-11-13T01:56:04.591Z,11.43
2022-11-13T01:58:59.851Z,11.85
2022-11-13T02:01:46.896Z,9.60
2022-11-13T02:04:34.501Z,11.85
2022-11-13T02:07:22.060Z,8.70
2022-11-13T02:10:10.270Z,6.07
2022-11-13T02:12:56.950Z,8.75
2022-11-13T02:15:45.154Z,9.20
2022-11-13T02:18:32.000Z,9.70
2022-11-13T02:21:52.733Z,9.15
2022-11-13T02:24:45.535Z,9.13
2022-11-13T02:27:50.122Z,7.80
2022-11-13T02:30:37.626Z,7.93
2022-11-13T02:33:30.860Z,5.85
2022-11-13T02:36:17.930Z,10.52
2022-11-13T02:39:09.411Z,5.80
2022-11-13T02:41:56.464Z,6.53
2022-11-13T02:44:44.010Z,7.85
2022-11-13T02:47:30.820Z,10.68
2022-11-13T02:50:18.359Z,7.93
2022-11-13T02:53:05.492Z,6.93
2022-11-13T02:55:52.530Z,7.63
2022-11-13T02:58:39.590Z,6.07
2022-11-13T03:01:26.876Z,7.05
2022-11-13T03:04:13.651Z,6.63
2022-11-13T03:07:01.905Z,6.95
2022-11-13T03:09:48.730Z,5.95
2022-11-13T03:12:36.081Z,5.72
2022-11-13T03:15:23.313Z,7.32
2022-11-13T03:18:12.294Z,5.75
2022-11-13T03:21:05.484Z,5.90
2022-11-13T03:23:54.274Z,4.57
2022-11-13T03:26:41.380Z,5.90
2022-11-13T03:29:28.521Z,5.05
2022-11-13T03:32:15.490Z,5.20
2022-11-13T03:35:02.814Z,4.55
2022-11-13T03:37:49.612Z,7.00
2022-11-13T03:40:37.100Z,5.75
2022-11-13T03:43:24.365Z,5.55
2022-11-13T03:46:11.889Z,6.32
2022-11-13T03:48:58.821Z,6.88
2022-11-13T03:51:47.702Z,4.68
2022-11-13T03:54:34.789Z,4.43
2022-11-13T03:57:22.802Z,6.00
2022-11-13T04:00:11.219Z,5.03
2022-11-13T04:02:59.090Z,5.07
2022-11-13T04:05:48.019Z,5.25
2022-11-13T04:08:36.059Z,5.00
2022-11-13T04:11:23.180Z,6.65
2022-11-13T04:14:10.229Z,5.25
2022-11-13T04:16:56.924Z,4.60
2022-11-13T04:19:45.070Z,6.90
2022-11-13T04:22:32.129Z,3.88
2022-11-13T04:25:20.900Z,4.18
2022-11-13T04:28:07.609Z,4.10
2022-11-13T04:30:55.291Z,4.60
2022-11-13T04:33:42.039Z,4.30
2022-11-13T04:36:29.320Z,3.63
2022-11-13T04:39:16.408Z,4.70
2022-11-13T04:42:23.569Z,4.07
2022-11-13T04:45:10.782Z,5.35
2022-11-13T04:47:59.180Z,4.60
2022-11-13T04:50:46.789Z,5.43
2022-11-13T04:53:35.200Z,4.45
2022-11-13T04:56:21.977Z,3.25
2022-11-13T04:59:09.420Z,5.32
2022-11-13T05:01:56.492Z,4.95
2022-11-13T05:04:43.479Z,4.53
2022-11-13T05:07:30.700Z,3.08
2022-11-13T05:10:18.229Z,3.90
2022-11-13T05:13:04.859Z,4.85
2022-11-13T05:16:00.518Z,3.70
2022-11-13T05:18:47.340Z,4.28
2022-11-13T05:21:39.699Z,3.53
2022-11-13T05:24:26.178Z,6.95
2022-11-13T05:27:17.469Z,3.92
2022-11-13T05:30:06.213Z,3.75
2022-11-13T05:32:53.441Z,4.28
2022-11-13T05:35:40.393Z,4.18
2022-11-13T05:38:29.457Z,4.15
2022-11-13T05:41:21.889Z,3.55
2022-11-13T05:44:09.261Z,3.95
2022-11-13T05:46:56.124Z,4.35
2022-11-13T05:49:43.393Z,3.65
2022-11-13T05:52:30.589Z,4.05
2022-11-13T05:55:23.006Z,3.92
2022-11-13T05:58:12.102Z,2.88
2022-11-13T06:01:29.287Z,4.30
2022-11-13T06:04:16.161Z,4.75
2022-11-13T06:07:04.509Z,3.65
2022-11-13T06:09:51.260Z,2.63
2022-11-13T06:12:39.850Z,4.78
2022-11-13T06:15:26.781Z,3.17
2022-11-13T06:18:13.959Z,4.03
2022-11-13T06:21:17.879Z,3.50
2022-11-13T06:24:05.873Z,3.63
2022-11-13T06:26:54.009Z,3.53
2022-11-13T06:29:42.251Z,2.95
2022-11-13T06:32:29.469Z,4.20
2022-11-13T06:35:17.019Z,3.85
2022-11-13T06:38:04.240Z,3.25
2022-11-13T06:40:51.659Z,4.25
2022-11-13T06:43:38.920Z,4.97
2022-11-13T06:46:28.651Z,4.18
2022-11-13T06:49:15.852Z,3.42
2022-11-13T06:52:03.280Z,3.13
2022-11-13T06:54:50.431Z,3.88
2022-11-13T06:57:39.153Z,5.03
2022-11-13T07:00:25.981Z,2.60
2022-11-13T07:03:26.850Z,3.85
2022-11-13T07:06:22.828Z,3.15
2022-11-13T07:09:11.356Z,3.78
2022-11-13T07:11:58.541Z,4.32
2022-11-13T07:14:46.012Z,4.22
2022-11-13T07:17:33.011Z,5.63
2022-11-13T07:20:20.210Z,2.58
2022-11-13T07:23:07.622Z,3.72
2022-11-13T07:25:55.780Z,3.78
2022-11-13T07:28:42.914Z,4.68
2022-11-13T07:31:31.240Z,2.78
2022-11-13T07:34:18.120Z,3.83
2022-11-13T07:37:07.110Z,2.50
2022-11-13T07:39:54.291Z,7.15
2022-11-13T07:42:43.012Z,2.65
2022-11-13T07:45:29.955Z,4.25
2022-11-13T07:48:17.323Z,5.20
2022-11-13T07:51:04.322Z,6.97
2022-11-13T07:53:51.431Z,3.55
2022-11-13T07:56:38.352Z,6.25
2022-11-13T07:59:25.751Z,4.65
2022-11-13T08:02:16.371Z,2.95
2022-11-13T08:05:04.074Z,6.20
2022-11-13T08:07:52.176Z,6.90
2022-11-13T08:10:41.132Z,4.72
2022-11-13T08:13:28.062Z,3.67
2022-11-13T08:16:16.505Z,7.78
2022-11-13T08:19:04.236Z,4.25
2022-11-13T08:21:51.452Z,7.55
2022-11-13T08:24:39.392Z,4.13
2022-11-13T08:27:26.612Z,7.05
2022-11-13T08:30:14.601Z,4.25
2022-11-13T08:33:03.272Z,5.55
2022-11-13T08:35:58.522Z,6.00
2022-11-13T08:38:45.822Z,3.58
2022-11-13T08:41:33.564Z,9.52
2022-11-13T08:44:20.890Z,4.05
2022-11-13T08:47:07.822Z,5.35
2022-11-13T08:49:55.712Z,6.90
2022-11-13T08:52:42.869Z,4.68
2022-11-13T08:55:30.254Z,6.15
2022-11-13T08:58:17.293Z,4.45
2022-11-13T09:01:05.431Z,4.28
2022-11-13T09:03:52.329Z,4.10
2022-11-13T09:06:39.761Z,3.63
2022-11-13T09:09:26.500Z,5.25
2022-11-13T09:12:13.724Z,7.40
2022-11-13T09:15:00.562Z,3.83
2022-11-13T09:17:47.941Z,3.30
2022-11-13T09:20:35.111Z,3.70
2022-11-13T09:23:22.552Z,4.97
2022-11-13T09:26:09.590Z,4.80
2022-11-13T09:28:56.712Z,3.05
2022-11-13T09:31:43.881Z,5.15
2022-11-13T09:34:33.831Z,6.05
2022-11-13T09:37:21.068Z,5.50
2022-11-13T09:40:12.218Z,14.85
2022-11-13T09:43:01.045Z,11.10
2022-11-13T09:45:48.671Z,5.15
2022-11-13T09:48:38.574Z,5.63
2022-11-13T09:51:30.748Z,8.43
2022-11-13T09:54:17.627Z,10.10
2022-11-13T09:57:26.301Z,8.70
2022-11-13T10:00:19.931Z,8.15
2022-11-13T10:03:23.962Z,7.88
2022-11-13T10:06:39.510Z,4.18
2022-11-13T10:09:55.520Z,3.42
2022-11-13T10:12:42.753Z,6.13
2022-11-13T10:15:30.041Z,6.20
2022-11-13T10:18:30.638Z,3.85
2022-11-13T10:21:37.700Z,3.42
2022-11-13T10:24:37.979Z,4.60
2022-11-13T10:27:26.518Z,6.35
2022-11-13T10:30:18.672Z,4.68
2022-11-13T10:33:08.593Z,4.90
2022-11-13T10:36:19.920Z,5.20
2022-11-13T10:39:08.890Z,6.82
2022-11-13T10:41:56.320Z,7.97
2022-11-13T10:44:57.736Z,8.55
2022-11-13T10:48:03.632Z,6.18
2022-11-13T10:51:15.591Z,6.07
2022-11-13T10:54:22.053Z,4.70
2022-11-13T10:57:33.701Z,7.30
2022-11-13T11:00:34.386Z,7.82
2022-11-13T11:03:23.979Z,7.32
2022-11-13T11:06:11.020Z,5.40
2022-11-13T11:09:21.311Z,11.07
2022-11-13T11:12:23.104Z,7.78
2022-11-13T11:15:51.761Z,5.30
2022-11-13T11:18:54.570Z,8.20
2022-11-13T11:21:43.041Z,5.75
2022-11-13T11:24:37.481Z,6.28
2022-11-13T11:27:47.003Z,8.40
2022-11-13T11:30:53.838Z,6.93
2022-11-13T11:34:40.273Z,4.88
2022-11-13T11:37:41.355Z,9.30
2022-11-13T11:40:42.399Z,5.90
2022-11-13T11:43:39.631Z,4.97
2022-11-13T11:46:28.739Z,8.88
2022-11-13T11:49:15.862Z,4.85
2022-11-13T11:53:02.371Z,5.50
2022-11-13T11:56:40.570Z,5.35
2022-11-13T12:00:01.746Z,6.03
2022-11-13T12:03:32.741Z,6.28
2022-11-13T12:06:32.424Z,7.32
2022-11-13T12:09:40.590Z,4.78
2022-11-13T12:12:58.650Z,6.05
2022-11-13T12:16:09.860Z,7.20
2022-11-13T12:19:23.418Z,4.40
2022-11-13T12:22:30.563Z,7.60
2022-11-13T12:25:44.470Z,5.88
2022-11-13T12:28:56.972Z,4.47
2022-11-13T12:31:58.669Z,7.47
2022-11-13T12:34:52.871Z,7.60
2022-11-13T12:38:13.040Z,4.78
2022-11-13T12:41:15.147Z,5.35
2022-11-13T12:44:24.872Z,4.63
2022-11-13T12:47:12.000Z,7.57
2022-11-13T12:50:31.692Z,5.50
2022-11-13T12:53:31.269Z,8.40
2022-11-13T12:56:28.852Z,4.18
2022-11-13T12:59:34.068Z,4.57
2022-11-13T13:02:32.573Z,6.95
2022-11-13T13:05:46.664Z,4.50
2022-11-13T13:09:22.071Z,6.78
2022-11-13T13:12:36.678Z,4.95
2022-11-13T13:15:36.469Z,4.47
2022-11-13T13:18:29.975Z,6.93
2022-11-13T13:21:18.864Z,4.80
2022-11-13T13:24:27.349Z,5.90
2022-11-13T13:27:26.548Z,5.00
2022-11-13T13:30:22.529Z,5.38
2022-11-13T13:33:15.477Z,6.25
2022-11-13T13:36:21.349Z,7.13
2022-11-13T13:39:48.626Z,5.40
2022-11-13T13:43:05.497Z,5.68
2022-11-13T13:46:11.017Z,4.35
2022-11-13T13:49:07.017Z,7.15
2022-11-13T13:51:55.757Z,6.00
2022-11-13T13:54:42.893Z,4.75
2022-11-13T13:57:30.638Z,7.65
2022-11-13T14:00:19.525Z,5.72
2022-11-13T14:03:20.143Z,4.90
2022-11-13T14:06:24.733Z,5.78
2022-11-13T14:09:23.439Z,7.18
2022-11-13T14:12:22.114Z,7.50
2022-11-13T14:15:28.790Z,7.20
2022-11-13T14:18:17.849Z,4.45
2022-11-13T14:21:16.180Z,5.03
2022-11-13T14:24:03.923Z,9.30
2022-11-13T14:26:53.129Z,6.15
2022-11-13T14:29:52.758Z,7.07
2022-11-13T14:32:45.704Z,5.32
2022-11-13T14:35:34.167Z,5.75
2022-11-13T14:38:26.823Z,7.53
2022-11-13T14:41:50.346Z,6.28
2022-11-13T14:44:37.503Z,5.60
2022-11-13T14:47:28.786Z,9.27
2022-11-13T14:50:24.293Z,6.53
2022-11-13T14:53:11.620Z,5.80
2022-11-13T14:56:12.295Z,7.82
2022-11-13T14:59:18.348Z,6.85
2022-11-13T15:02:07.354Z,7.05
2022-11-13T15:04:54.147Z,6.45
2022-11-13T15:07:42.775Z,7.40
2022-11-13T15:10:30.515Z,7.55
2022-11-13T15:13:18.547Z,7.38
2022-11-13T15:16:06.123Z,7.38
2022-11-13T15:19:14.128Z,6.15
2022-11-13T15:25:20.693Z,6.93
2022-11-13T15:28:07.579Z,6.95
2022-11-13T15:30:55.256Z,9.07
2022-11-13T15:33:42.395Z,7.60
2022-11-13T15:36:30.595Z,7.38
2022-11-13T15:39:23.378Z,9.50
2022-11-13T15:42:17.345Z,6.47
2022-11-13T15:45:07.695Z,7.95
2022-11-13T15:47:55.165Z,7.35
2022-11-13T15:50:41.983Z,7.63
2022-11-13T15:53:29.576Z,11.68
2022-11-13T15:56:17.004Z,8.23
2022-11-13T15:59:04.137Z,7.22
2022-11-13T16:01:54.067Z,10.70
2022-11-13T16:04:55.954Z,10.00
2022-11-13T16:07:43.620Z,8.20
2022-11-13T16:10:31.064Z,7.32
2022-11-13T16:13:18.292Z,11.65
2022-11-13T16:16:08.383Z,7.63
2022-11-13T16:18:59.988Z,7.82
2022-11-13T16:21:48.594Z,9.75
2022-11-13T16:24:35.587Z,13.63
2022-11-13T16:27:31.805Z,10.23
2022-11-13T16:30:23.732Z,10.05
2022-11-13T16:33:11.293Z,8.05
2022-11-13T16:35:58.510Z,11.15
2022-11-13T16:38:45.688Z,9.88
2022-11-13T16:41:32.755Z,8.52
2022-11-13T16:44:20.211Z,7.82
2022-11-13T16:47:08.283Z,10.18
2022-11-13T16:49:55.808Z,15.50
2022-11-13T16:52:43.463Z,11.73
2022-11-13T16:55:31.319Z,13.90
2022-11-13T16:58:19.511Z,10.23
2022-11-13T17:01:07.144Z,10.95
2022-11-13T17:03:54.314Z,15.45
2022-11-13T17:06:41.783Z,6.97
2022-11-13T17:09:29.514Z,9.23
2022-11-13T17:12:19.144Z,10.40
2022-11-13T17:15:09.875Z,9.02
2022-11-13T17:17:58.946Z,16.50
2022-11-13T17:20:51.322Z,11.13
2022-11-13T17:23:38.828Z,11.98
2022-11-13T17:26:26.193Z,11.25
2022-11-13T17:29:13.865Z,12.05
2022-11-13T17:32:01.429Z,11.75
2022-11-13T17:34:49.913Z,10.20
2022-11-13T17:37:36.843Z,9.27
2022-11-13T17:40:24.213Z,10.65
2022-11-13T17:43:11.862Z,12.43
2022-11-13T17:45:59.544Z,23.40
2022-11-13T17:48:48.692Z,12.10
2022-11-13T17:51:36.003Z,13.52
2022-11-13T17:54:23.735Z,10.60
2022-11-13T17:57:13.033Z,11.85
2022-11-13T17:59:59.944Z,12.43
2022-11-13T18:02:47.082Z,12.65
2022-11-13T18:05:40.470Z,12.95
2022-11-13T18:08:28.176Z,14.90
2022-11-13T18:11:19.793Z,12.40
2022-11-13T18:14:06.772Z,13.50
2022-11-13T18:16:53.853Z,15.38
2022-11-13T18:19:41.338Z,14.00
2022-11-13T18:22:28.773Z,12.50
2022-11-13T18:25:15.976Z,13.80
2022-11-13T18:28:03.275Z,17.95
2022-11-13T18:30:56.131Z,13.30
2022-11-13T18:33:45.810Z,15.50
2022-11-13T18:36:35.851Z,13.05
2022-11-13T18:39:23.796Z,13.82
2022-11-13T18:42:10.783Z,13.90
2022-11-13T18:45:00.536Z,14.02
2022-11-13T18:47:52.784Z,14.55
2022-11-13T18:50:41.603Z,15.43
2022-11-13T18:53:34.330Z,14.98
2022-11-13T18:56:25.058Z,17.27
2022-11-13T18:59:27.250Z,12.95
2022-11-13T19:02:16.573Z,12.55
2022-11-13T19:05:06.669Z,13.90
2022-11-13T19:07:56.812Z,14.77
2022-11-13T19:10:44.988Z,12.73
2022-11-13T19:13:35.078Z,15.23
2022-11-13T19:16:26.473Z,16.80
2022-11-13T19:19:20.628Z,14.88
2022-11-13T19:22:09.244Z,15.63
2022-11-13T19:24:57.203Z,20.70
2022-11-13T19:27:44.461Z,15.70
2022-11-13T19:30:32.623Z,17.02
2022-11-13T19:33:19.538Z,15.38
2022-11-13T19:36:13.033Z,15.85
2022-11-13T19:39:00.136Z,19.00
2022-11-13T19:41:47.318Z,12.77
2022-11-13T19:44:34.389Z,16.92
2022-11-13T19:47:21.809Z,16.90
2022-11-13T19:50:10.403Z,19.38
2022-11-13T19:52:58.083Z,17.35
2022-11-13T19:55:58.049Z,20.17
2022-11-13T19:58:47.011Z,16.88
2022-11-13T20:01:34.185Z,16.52
2022-11-13T20:04:23.413Z,19.33
2022-11-13T20:07:11.590Z,15.82
2022-11-13T20:09:58.554Z,12.50
2022-11-13T20:12:46.449Z,14.85
2022-11-13T20:15:34.969Z,15.82
2022-11-13T20:18:21.954Z,18.85
2022-11-13T20:21:09.014Z,15.38
2022-11-13T20:23:56.859Z,17.55
2022-11-13T20:26:44.033Z,14.55
2022-11-13T20:29:33.099Z,17.17
2022-11-13T20:32:21.454Z,12.25
2022-11-13T20:35:09.479Z,21.73
2022-11-13T20:37:58.773Z,17.25
2022-11-13T20:40:45.838Z,15.50
2022-11-13T20:43:33.419Z,15.25
2022-11-13T20:46:21.360Z,17.02
2022-11-13T20:49:08.755Z,17.42
2022-11-13T20:51:57.308Z,13.55
2022-11-13T20:54:45.283Z,15.15
2022-11-13T20:57:39.665Z,16.67
2022-11-13T21:00:28.784Z,17.77
2022-11-13T21:03:16.383Z,16.90
2022-11-13T21:06:03.839Z,16.33
2022-11-13T21:08:53.863Z,18.83
2022-11-13T21:11:42.318Z,14.25
2022-11-13T21:14:29.189Z,14.15
2022-11-13T21:17:16.913Z,16.67
2022-11-13T21:20:05.348Z,15.80
2022-11-13T21:22:54.204Z,14.15
2022-11-13T21:25:40.866Z,18.55
2022-11-13T21:28:32.432Z,13.18
2022-11-13T21:31:21.593Z,17.40
2022-11-13T21:34:10.324Z,12.85
2022-11-13T21:36:57.478Z,13.02
2022-11-13T21:39:44.954Z,27.27
2022-11-13T21:42:32.104Z,14.52
2022-11-13T21:45:19.919Z,14.43
2022-11-13T21:48:07.428Z,16.85
2022-11-13T21:50:55.158Z,13.70
2022-11-13T21:53:43.328Z,16.00
2022-11-13T21:56:32.458Z,20.20
2022-11-13T21:59:19.830Z,12.57
2022-11-13T22:02:10.638Z,14.90
2022-11-13T22:04:57.829Z,17.02
2022-11-13T22:07:46.571Z,15.35
2022-11-13T22:10:33.889Z,14.48
2022-11-13T22:13:21.455Z,13.68
2022-11-13T22:16:09.579Z,15.32
2022-11-13T22:18:59.341Z,14.73
2022-11-13T22:21:46.839Z,18.00
2022-11-13T22:24:34.639Z,14.52
2022-11-13T22:27:22.110Z,17.75
2022-11-13T22:30:11.219Z,13.27
2022-11-13T22:32:58.692Z,12.25
2022-11-13T22:35:46.474Z,18.25
2022-11-13T22:38:35.332Z,15.73
2022-11-13T22:41:30.932Z,13.15
2022-11-13T22:44:18.242Z,15.93
2022-11-13T22:47:05.755Z,14.15
2022-11-13T22:49:52.900Z,12.68
2022-11-13T22:52:42.129Z,14.48
2022-11-13T22:55:29.105Z,13.95
2022-11-13T22:58:16.877Z,15.00
2022-11-13T23:01:16.094Z,12.73
2022-11-13T23:04:06.719Z,13.50
2022-11-13T23:06:53.956Z,20.02
2022-11-13T23:09:41.950Z,14.25
2022-11-13T23:12:29.230Z,13.10
2022-11-13T23:15:16.830Z,13.88
2022-11-13T23:18:09.529Z,13.77
2022-11-13T23:20:58.760Z,12.65
2022-11-13T23:23:46.310Z,13.77
2022-11-13T23:26:33.541Z,12.32
2022-11-13T23:29:20.664Z,11.40
2022-11-13T23:32:09.494Z,13.95
2022-11-13T23:34:59.800Z,15.27
2022-11-13T23:37:47.788Z,13.27
2022-11-13T23:40:35.210Z,12.82
2022-11-13T23:43:36.486Z,15.18
2022-11-13T23:46:32.017Z,11.68
2022-11-13T23:49:19.330Z,11.63
2022-11-13T23:52:06.360Z,13.13
2022-11-13T23:54:53.831Z,13.73
2022-11-13T23:57:41.164Z,13.95
